<?xml version="1.0" encoding="UTF-8" standalone="no" ?>
<gpx xmlns="http://www.topografix.com/GPX/1/1" xmlns:xsi="http://www.w3.org/2001/XMLSchema-instance" xsi:schemaLocation="http://www.topografix.com/GPX/1/1 http://www.topografix.com/GPX/1/1/gpx.xsd" version="1.1" creator="VisuGPX - https://www.visugpx.com">
  <metadata>
    <name>ACTIVE LOG #2</name>
  </metadata>
  <trk>
    <name><![CDATA[ACTIVE LOG #2]]></name>
    <trkseg>
      <trkpt lat="46.39048" lon="-0.42222">
        <ele>31</ele>
        <time>2009-07-21T16:05:34Z</time>
      </trkpt>
      <trkpt lat="46.3905" lon="-0.42224">
        <ele>31</ele>
        <time>2009-07-21T16:06:04Z</time>
      </trkpt>
      <trkpt lat="46.39074" lon="-0.42229">
        <ele>31</ele>
        <time>2009-07-21T16:06:14Z</time>
      </trkpt>
      <trkpt lat="46.39106" lon="-0.42224">
        <ele>30</ele>
        <time>2009-07-21T16:06:28Z</time>
      </trkpt>
      <trkpt lat="46.39106" lon="-0.42199">
        <ele>30</ele>
        <time>2009-07-21T16:06:33Z</time>
      </trkpt>
      <trkpt lat="46.39104" lon="-0.42184">
        <ele>30</ele>
        <time>2009-07-21T16:06:36Z</time>
      </trkpt>
      <trkpt lat="46.39121" lon="-0.42166">
        <ele>30</ele>
        <time>2009-07-21T16:06:41Z</time>
      </trkpt>
      <trkpt lat="46.39254" lon="-0.42141">
        <ele>29</ele>
        <time>2009-07-21T16:07:13Z</time>
      </trkpt>
      <trkpt lat="46.3929" lon="-0.42132">
        <ele>29</ele>
        <time>2009-07-21T16:07:22Z</time>
      </trkpt>
      <trkpt lat="46.39314" lon="-0.42194">
        <ele>29</ele>
        <time>2009-07-21T16:07:34Z</time>
      </trkpt>
      <trkpt lat="46.39329" lon="-0.42222">
        <ele>29</ele>
        <time>2009-07-21T16:07:39Z</time>
      </trkpt>
      <trkpt lat="46.39404" lon="-0.42173">
        <ele>29</ele>
        <time>2009-07-21T16:08:00Z</time>
      </trkpt>
      <trkpt lat="46.39365" lon="-0.42304">
        <ele>28</ele>
        <time>2009-07-21T16:08:30Z</time>
      </trkpt>
      <trkpt lat="46.39365" lon="-0.42308">
        <ele>28</ele>
        <time>2009-07-21T16:08:31Z</time>
      </trkpt>
      <trkpt lat="46.3938" lon="-0.42357">
        <ele>29</ele>
        <time>2009-07-21T16:08:34Z</time>
      </trkpt>
      <trkpt lat="46.39383" lon="-0.42441">
        <ele>33</ele>
        <time>2009-07-21T16:08:51Z</time>
      </trkpt>
      <trkpt lat="46.39436" lon="-0.42553">
        <ele>41</ele>
        <time>2009-07-21T16:09:19Z</time>
      </trkpt>
      <trkpt lat="46.39668" lon="-0.42696">
        <ele>40</ele>
        <time>2009-07-21T16:10:22Z</time>
      </trkpt>
      <trkpt lat="46.39685" lon="-0.42716">
        <ele>40</ele>
        <time>2009-07-21T16:10:43Z</time>
      </trkpt>
      <trkpt lat="46.39732" lon="-0.42714">
        <ele>41</ele>
        <time>2009-07-21T16:11:05Z</time>
      </trkpt>
      <trkpt lat="46.39945" lon="-0.42611">
        <ele>34</ele>
        <time>2009-07-21T16:11:44Z</time>
      </trkpt>
      <trkpt lat="46.40076" lon="-0.42598">
        <ele>35</ele>
        <time>2009-07-21T16:12:08Z</time>
      </trkpt>
      <trkpt lat="46.40196" lon="-0.42576">
        <ele>31</ele>
        <time>2009-07-21T16:12:29Z</time>
      </trkpt>
      <trkpt lat="46.40329" lon="-0.42514">
        <ele>30</ele>
        <time>2009-07-21T16:12:54Z</time>
      </trkpt>
      <trkpt lat="46.40372" lon="-0.42486">
        <ele>30</ele>
        <time>2009-07-21T16:13:03Z</time>
      </trkpt>
      <trkpt lat="46.40402" lon="-0.42478">
        <ele>30</ele>
        <time>2009-07-21T16:13:09Z</time>
      </trkpt>
      <trkpt lat="46.40516" lon="-0.4251">
        <ele>30</ele>
        <time>2009-07-21T16:13:34Z</time>
      </trkpt>
      <trkpt lat="46.40685" lon="-0.42581">
        <ele>40</ele>
        <time>2009-07-21T16:14:12Z</time>
      </trkpt>
      <trkpt lat="46.4076" lon="-0.42583">
        <ele>45</ele>
        <time>2009-07-21T16:14:34Z</time>
      </trkpt>
      <trkpt lat="46.4076" lon="-0.42583">
        <ele>45</ele>
        <time>2009-07-21T16:14:36Z</time>
      </trkpt>
      <trkpt lat="46.40764" lon="-0.42561">
        <ele>44</ele>
        <time>2009-07-21T16:14:46Z</time>
      </trkpt>
      <trkpt lat="46.40764" lon="-0.4251">
        <ele>45</ele>
        <time>2009-07-21T16:15:12Z</time>
      </trkpt>
      <trkpt lat="46.40754" lon="-0.42495">
        <ele>48</ele>
        <time>2009-07-21T16:15:49Z</time>
      </trkpt>
      <trkpt lat="46.40702" lon="-0.42308">
        <ele>54</ele>
        <time>2009-07-21T16:16:31Z</time>
      </trkpt>
      <trkpt lat="46.40707" lon="-0.42287">
        <ele>55</ele>
        <time>2009-07-21T16:16:38Z</time>
      </trkpt>
      <trkpt lat="46.40771" lon="-0.42293">
        <ele>57</ele>
        <time>2009-07-21T16:16:56Z</time>
      </trkpt>
      <trkpt lat="46.4088" lon="-0.42295">
        <ele>48</ele>
        <time>2009-07-21T16:17:26Z</time>
      </trkpt>
      <trkpt lat="46.40917" lon="-0.42293">
        <ele>46</ele>
        <time>2009-07-21T16:17:35Z</time>
      </trkpt>
      <trkpt lat="46.40994" lon="-0.4216">
        <ele>45</ele>
        <time>2009-07-21T16:17:42Z</time>
      </trkpt>
      <trkpt lat="46.40998" lon="-0.42177">
        <ele>44</ele>
        <time>2009-07-21T16:17:45Z</time>
      </trkpt>
      <trkpt lat="46.40966" lon="-0.42248">
        <ele>46</ele>
        <time>2009-07-21T16:18:00Z</time>
      </trkpt>
      <trkpt lat="46.40919" lon="-0.42366">
        <ele>47</ele>
        <time>2009-07-21T16:18:27Z</time>
      </trkpt>
      <trkpt lat="46.40925" lon="-0.42377">
        <ele>46</ele>
        <time>2009-07-21T16:18:31Z</time>
      </trkpt>
      <trkpt lat="46.40979" lon="-0.42422">
        <ele>49</ele>
        <time>2009-07-21T16:18:56Z</time>
      </trkpt>
      <trkpt lat="46.41018" lon="-0.42465">
        <ele>57</ele>
        <time>2009-07-21T16:19:17Z</time>
      </trkpt>
      <trkpt lat="46.41078" lon="-0.42521">
        <ele>62</ele>
        <time>2009-07-21T16:19:48Z</time>
      </trkpt>
      <trkpt lat="46.41125" lon="-0.42499">
        <ele>68</ele>
        <time>2009-07-21T16:20:15Z</time>
      </trkpt>
      <trkpt lat="46.41207" lon="-0.42295">
        <ele>68</ele>
        <time>2009-07-21T16:20:38Z</time>
      </trkpt>
      <trkpt lat="46.41209" lon="-0.42291">
        <ele>68</ele>
        <time>2009-07-21T16:20:39Z</time>
      </trkpt>
      <trkpt lat="46.41224" lon="-0.42278">
        <ele>68</ele>
        <time>2009-07-21T16:20:43Z</time>
      </trkpt>
      <trkpt lat="46.41303" lon="-0.42224">
        <ele>68</ele>
        <time>2009-07-21T16:21:06Z</time>
      </trkpt>
      <trkpt lat="46.41365" lon="-0.4219">
        <ele>70</ele>
        <time>2009-07-21T16:21:30Z</time>
      </trkpt>
      <trkpt lat="46.41372" lon="-0.42184">
        <ele>70</ele>
        <time>2009-07-21T16:21:34Z</time>
      </trkpt>
      <trkpt lat="46.41346" lon="-0.42115">
        <ele>66</ele>
        <time>2009-07-21T16:21:50Z</time>
      </trkpt>
      <trkpt lat="46.41322" lon="-0.42051">
        <ele>57</ele>
        <time>2009-07-21T16:22:07Z</time>
      </trkpt>
      <trkpt lat="46.41335" lon="-0.4204">
        <ele>59</ele>
        <time>2009-07-21T16:22:12Z</time>
      </trkpt>
      <trkpt lat="46.41352" lon="-0.4201">
        <ele>57</ele>
        <time>2009-07-21T16:22:29Z</time>
      </trkpt>
      <trkpt lat="46.41402" lon="-0.41963">
        <ele>57</ele>
        <time>2009-07-21T16:23:09Z</time>
      </trkpt>
      <trkpt lat="46.41428" lon="-0.41943">
        <ele>57</ele>
        <time>2009-07-21T16:23:28Z</time>
      </trkpt>
      <trkpt lat="46.41556" lon="-0.41918">
        <ele>60</ele>
        <time>2009-07-21T16:24:37Z</time>
      </trkpt>
      <trkpt lat="46.41706" lon="-0.41712">
        <ele>61</ele>
        <time>2009-07-21T16:25:23Z</time>
      </trkpt>
      <trkpt lat="46.41769" lon="-0.416">
        <ele>63</ele>
        <time>2009-07-21T16:26:06Z</time>
      </trkpt>
      <trkpt lat="46.41777" lon="-0.41634">
        <ele>62</ele>
        <time>2009-07-21T16:27:57Z</time>
      </trkpt>
      <trkpt lat="46.41777" lon="-0.41636">
        <ele>62</ele>
        <time>2009-07-21T16:27:58Z</time>
      </trkpt>
      <trkpt lat="46.41818" lon="-0.41714">
        <ele>64</ele>
        <time>2009-07-21T16:28:41Z</time>
      </trkpt>
      <trkpt lat="46.41844" lon="-0.41774">
        <ele>69</ele>
        <time>2009-07-21T16:29:11Z</time>
      </trkpt>
      <trkpt lat="46.41893" lon="-0.41879">
        <ele>73</ele>
        <time>2009-07-21T16:29:45Z</time>
      </trkpt>
      <trkpt lat="46.4184" lon="-0.4193">
        <ele>73</ele>
        <time>2009-07-21T16:30:02Z</time>
      </trkpt>
      <trkpt lat="46.41689" lon="-0.42053">
        <ele>72</ele>
        <time>2009-07-21T16:30:38Z</time>
      </trkpt>
      <trkpt lat="46.41657" lon="-0.42083">
        <ele>72</ele>
        <time>2009-07-21T16:30:45Z</time>
      </trkpt>
      <trkpt lat="46.41612" lon="-0.42106">
        <ele>72</ele>
        <time>2009-07-21T16:30:54Z</time>
      </trkpt>
      <trkpt lat="46.41556" lon="-0.42115">
        <ele>72</ele>
        <time>2009-07-21T16:31:04Z</time>
      </trkpt>
      <trkpt lat="46.41462" lon="-0.42141">
        <ele>71</ele>
        <time>2009-07-21T16:31:22Z</time>
      </trkpt>
      <trkpt lat="46.4132" lon="-0.42212">
        <ele>68</ele>
        <time>2009-07-21T16:31:52Z</time>
      </trkpt>
      <trkpt lat="46.4123" lon="-0.42263">
        <ele>68</ele>
        <time>2009-07-21T16:32:13Z</time>
      </trkpt>
      <trkpt lat="46.41213" lon="-0.42252">
        <ele>68</ele>
        <time>2009-07-21T16:32:19Z</time>
      </trkpt>
      <trkpt lat="46.41207" lon="-0.42246">
        <ele>65</ele>
        <time>2009-07-21T16:32:21Z</time>
      </trkpt>
      <trkpt lat="46.41136" lon="-0.42151">
        <ele>52</ele>
        <time>2009-07-21T16:32:42Z</time>
      </trkpt>
      <trkpt lat="46.41164" lon="-0.42199">
        <ele>58</ele>
        <time>2009-07-21T16:33:07Z</time>
      </trkpt>
      <trkpt lat="46.41151" lon="-0.42188">
        <ele>57</ele>
        <time>2009-07-21T16:33:20Z</time>
      </trkpt>
      <trkpt lat="46.41149" lon="-0.42186">
        <ele>57</ele>
        <time>2009-07-21T16:33:21Z</time>
      </trkpt>
      <trkpt lat="46.41104" lon="-0.42162">
        <ele>50</ele>
        <time>2009-07-21T16:34:00Z</time>
      </trkpt>
      <trkpt lat="46.41078" lon="-0.4216">
        <ele>48</ele>
        <time>2009-07-21T16:34:26Z</time>
      </trkpt>
      <trkpt lat="46.41063" lon="-0.42171">
        <ele>48</ele>
        <time>2009-07-21T16:35:42Z</time>
      </trkpt>
      <trkpt lat="46.41043" lon="-0.42164">
        <ele>46</ele>
        <time>2009-07-21T16:35:47Z</time>
      </trkpt>
      <trkpt lat="46.41031" lon="-0.42175">
        <ele>47</ele>
        <time>2009-07-21T16:35:51Z</time>
      </trkpt>
      <trkpt lat="46.4097" lon="-0.42265">
        <ele>48</ele>
        <time>2009-07-21T16:36:10Z</time>
      </trkpt>
      <trkpt lat="46.40953" lon="-0.42315">
        <ele>48</ele>
        <time>2009-07-21T16:36:21Z</time>
      </trkpt>
      <trkpt lat="46.4096" lon="-0.42338">
        <ele>49</ele>
        <time>2009-07-21T16:36:27Z</time>
      </trkpt>
      <trkpt lat="46.40947" lon="-0.42364">
        <ele>48</ele>
        <time>2009-07-21T16:36:36Z</time>
      </trkpt>
      <trkpt lat="46.40934" lon="-0.42377">
        <ele>47</ele>
        <time>2009-07-21T16:36:53Z</time>
      </trkpt>
      <trkpt lat="46.40908" lon="-0.42413">
        <ele>42</ele>
        <time>2009-07-21T16:37:43Z</time>
      </trkpt>
      <trkpt lat="46.40904" lon="-0.42405">
        <ele>43</ele>
        <time>2009-07-21T16:37:56Z</time>
      </trkpt>
      <trkpt lat="46.40925" lon="-0.42445">
        <ele>44</ele>
        <time>2009-07-21T16:38:09Z</time>
      </trkpt>
      <trkpt lat="46.40928" lon="-0.4245">
        <ele>44</ele>
        <time>2009-07-21T16:38:10Z</time>
      </trkpt>
      <trkpt lat="46.40925" lon="-0.42512">
        <ele>43</ele>
        <time>2009-07-21T16:38:24Z</time>
      </trkpt>
      <trkpt lat="46.40874" lon="-0.42546">
        <ele>41</ele>
        <time>2009-07-21T16:38:39Z</time>
      </trkpt>
      <trkpt lat="46.40801" lon="-0.42591">
        <ele>42</ele>
        <time>2009-07-21T16:39:02Z</time>
      </trkpt>
      <trkpt lat="46.40728" lon="-0.42701">
        <ele>37</ele>
        <time>2009-07-21T16:39:34Z</time>
      </trkpt>
      <trkpt lat="46.40674" lon="-0.42797">
        <ele>33</ele>
        <time>2009-07-21T16:40:10Z</time>
      </trkpt>
      <trkpt lat="46.40644" lon="-0.42845">
        <ele>31</ele>
        <time>2009-07-21T16:40:33Z</time>
      </trkpt>
      <trkpt lat="46.40646" lon="-0.42879">
        <ele>32</ele>
        <time>2009-07-21T16:40:41Z</time>
      </trkpt>
      <trkpt lat="46.40574" lon="-0.42986">
        <ele>37</ele>
        <time>2009-07-21T16:41:00Z</time>
      </trkpt>
      <trkpt lat="46.40486" lon="-0.43091">
        <ele>36</ele>
        <time>2009-07-21T16:41:22Z</time>
      </trkpt>
      <trkpt lat="46.40464" lon="-0.43123">
        <ele>37</ele>
        <time>2009-07-21T16:41:28Z</time>
      </trkpt>
      <trkpt lat="46.40389" lon="-0.43291">
        <ele>43</ele>
        <time>2009-07-21T16:42:04Z</time>
      </trkpt>
      <trkpt lat="46.40359" lon="-0.43291">
        <ele>41</ele>
        <time>2009-07-21T16:42:20Z</time>
      </trkpt>
      <trkpt lat="46.40265" lon="-0.43424">
        <ele>43</ele>
        <time>2009-07-21T16:42:58Z</time>
      </trkpt>
      <trkpt lat="46.4023" lon="-0.43435">
        <ele>40</ele>
        <time>2009-07-21T16:43:04Z</time>
      </trkpt>
      <trkpt lat="46.40189" lon="-0.43439">
        <ele>38</ele>
        <time>2009-07-21T16:43:10Z</time>
      </trkpt>
      <trkpt lat="46.40089" lon="-0.4349">
        <ele>33</ele>
        <time>2009-07-21T16:43:27Z</time>
      </trkpt>
      <trkpt lat="46.40026" lon="-0.43527">
        <ele>32</ele>
        <time>2009-07-21T16:43:39Z</time>
      </trkpt>
      <trkpt lat="46.39966" lon="-0.43606">
        <ele>31</ele>
        <time>2009-07-21T16:43:58Z</time>
      </trkpt>
      <trkpt lat="46.39895" lon="-0.4366">
        <ele>28</ele>
        <time>2009-07-21T16:44:15Z</time>
      </trkpt>
      <trkpt lat="46.3987" lon="-0.43623">
        <ele>28</ele>
        <time>2009-07-21T16:44:23Z</time>
      </trkpt>
      <trkpt lat="46.39842" lon="-0.43606">
        <ele>27</ele>
        <time>2009-07-21T16:44:28Z</time>
      </trkpt>
      <trkpt lat="46.39769" lon="-0.43626">
        <ele>28</ele>
        <time>2009-07-21T16:44:39Z</time>
      </trkpt>
      <trkpt lat="46.39756" lon="-0.43628">
        <ele>28</ele>
        <time>2009-07-21T16:44:41Z</time>
      </trkpt>
      <trkpt lat="46.39638" lon="-0.43718">
        <ele>26</ele>
        <time>2009-07-21T16:45:05Z</time>
      </trkpt>
      <trkpt lat="46.39526" lon="-0.43834">
        <ele>26</ele>
        <time>2009-07-21T16:45:33Z</time>
      </trkpt>
      <trkpt lat="46.39441" lon="-0.43982">
        <ele>26</ele>
        <time>2009-07-21T16:46:00Z</time>
      </trkpt>
      <trkpt lat="46.39385" lon="-0.44194">
        <ele>26</ele>
        <time>2009-07-21T16:46:34Z</time>
      </trkpt>
      <trkpt lat="46.39333" lon="-0.4437">
        <ele>26</ele>
        <time>2009-07-21T16:47:04Z</time>
      </trkpt>
      <trkpt lat="46.39331" lon="-0.44392">
        <ele>26</ele>
        <time>2009-07-21T16:47:15Z</time>
      </trkpt>
      <trkpt lat="46.3932" lon="-0.44392">
        <ele>26</ele>
        <time>2009-07-21T16:47:36Z</time>
      </trkpt>
      <trkpt lat="46.3932" lon="-0.44394">
        <ele>26</ele>
        <time>2009-07-21T16:48:23Z</time>
      </trkpt>
      <trkpt lat="46.39327" lon="-0.4437">
        <ele>26</ele>
        <time>2009-07-21T16:49:16Z</time>
      </trkpt>
      <trkpt lat="46.39355" lon="-0.44312">
        <ele>26</ele>
        <time>2009-07-21T16:49:55Z</time>
      </trkpt>
      <trkpt lat="46.39355" lon="-0.44323">
        <ele>26</ele>
        <time>2009-07-21T16:50:34Z</time>
      </trkpt>
      <trkpt lat="46.39357" lon="-0.44329">
        <ele>26</ele>
        <time>2009-07-21T16:51:28Z</time>
      </trkpt>
      <trkpt lat="46.39357" lon="-0.44334">
        <ele>26</ele>
        <time>2009-07-21T16:54:40Z</time>
      </trkpt>
      <trkpt lat="46.39357" lon="-0.44347">
        <ele>25</ele>
        <time>2009-07-21T16:54:46Z</time>
      </trkpt>
      <trkpt lat="46.39346" lon="-0.44392">
        <ele>25</ele>
        <time>2009-07-21T16:55:21Z</time>
      </trkpt>
      <trkpt lat="46.39355" lon="-0.44422">
        <ele>25</ele>
        <time>2009-07-21T16:56:11Z</time>
      </trkpt>
      <trkpt lat="46.39357" lon="-0.4443">
        <ele>25</ele>
        <time>2009-07-21T16:56:27Z</time>
      </trkpt>
      <trkpt lat="46.39355" lon="-0.44445">
        <ele>25</ele>
        <time>2009-07-21T16:56:31Z</time>
      </trkpt>
      <trkpt lat="46.39353" lon="-0.44488">
        <ele>25</ele>
        <time>2009-07-21T16:56:39Z</time>
      </trkpt>
      <trkpt lat="46.39374" lon="-0.44746">
        <ele>25</ele>
        <time>2009-07-21T16:57:22Z</time>
      </trkpt>
      <trkpt lat="46.39421" lon="-0.44977">
        <ele>26</ele>
        <time>2009-07-21T16:57:59Z</time>
      </trkpt>
      <trkpt lat="46.39428" lon="-0.45003">
        <ele>25</ele>
        <time>2009-07-21T16:58:03Z</time>
      </trkpt>
      <trkpt lat="46.39393" lon="-0.45014">
        <ele>25</ele>
        <time>2009-07-21T16:58:13Z</time>
      </trkpt>
      <trkpt lat="46.39269" lon="-0.4507">
        <ele>26</ele>
        <time>2009-07-21T16:58:39Z</time>
      </trkpt>
      <trkpt lat="46.39091" lon="-0.4516">
        <ele>25</ele>
        <time>2009-07-21T16:59:13Z</time>
      </trkpt>
      <trkpt lat="46.39082" lon="-0.45166">
        <ele>25</ele>
        <time>2009-07-21T16:59:15Z</time>
      </trkpt>
      <trkpt lat="46.39076" lon="-0.45153">
        <ele>26</ele>
        <time>2009-07-21T16:59:18Z</time>
      </trkpt>
      <trkpt lat="46.39063" lon="-0.45076">
        <ele>25</ele>
        <time>2009-07-21T16:59:28Z</time>
      </trkpt>
      <trkpt lat="46.39046" lon="-0.44812">
        <ele>25</ele>
        <time>2009-07-21T17:00:00Z</time>
      </trkpt>
      <trkpt lat="46.39067" lon="-0.44593">
        <ele>28</ele>
        <time>2009-07-21T17:00:30Z</time>
      </trkpt>
      <trkpt lat="46.39067" lon="-0.44585">
        <ele>28</ele>
        <time>2009-07-21T17:00:31Z</time>
      </trkpt>
      <trkpt lat="46.39084" lon="-0.44381">
        <ele>28</ele>
        <time>2009-07-21T17:00:57Z</time>
      </trkpt>
      <trkpt lat="46.39091" lon="-0.44325">
        <ele>30</ele>
        <time>2009-07-21T17:01:05Z</time>
      </trkpt>
      <trkpt lat="46.39074" lon="-0.44321">
        <ele>32</ele>
        <time>2009-07-21T17:01:11Z</time>
      </trkpt>
      <trkpt lat="46.39069" lon="-0.44323">
        <ele>33</ele>
        <time>2009-07-21T17:01:12Z</time>
      </trkpt>
      <trkpt lat="46.38992" lon="-0.44342">
        <ele>37</ele>
        <time>2009-07-21T17:01:35Z</time>
      </trkpt>
      <trkpt lat="46.38842" lon="-0.44411">
        <ele>45</ele>
        <time>2009-07-21T17:02:27Z</time>
      </trkpt>
      <trkpt lat="46.38788" lon="-0.44452">
        <ele>47</ele>
        <time>2009-07-21T17:02:54Z</time>
      </trkpt>
      <trkpt lat="46.38724" lon="-0.44492">
        <ele>50</ele>
        <time>2009-07-21T17:03:28Z</time>
      </trkpt>
      <trkpt lat="46.3872" lon="-0.44486">
        <ele>50</ele>
        <time>2009-07-21T17:03:32Z</time>
      </trkpt>
      <trkpt lat="46.38705" lon="-0.44385">
        <ele>50</ele>
        <time>2009-07-21T17:03:50Z</time>
      </trkpt>
      <trkpt lat="46.38674" lon="-0.44134">
        <ele>46</ele>
        <time>2009-07-21T17:04:25Z</time>
      </trkpt>
      <trkpt lat="46.38672" lon="-0.44057">
        <ele>48</ele>
        <time>2009-07-21T17:04:33Z</time>
      </trkpt>
      <trkpt lat="46.38649" lon="-0.44048">
        <ele>49</ele>
        <time>2009-07-21T17:04:38Z</time>
      </trkpt>
      <trkpt lat="46.38569" lon="-0.44068">
        <ele>52</ele>
        <time>2009-07-21T17:04:56Z</time>
      </trkpt>
      <trkpt lat="46.38436" lon="-0.44108">
        <ele>57</ele>
        <time>2009-07-21T17:05:33Z</time>
      </trkpt>
      <trkpt lat="46.38314" lon="-0.44177">
        <ele>61</ele>
        <time>2009-07-21T17:06:08Z</time>
      </trkpt>
      <trkpt lat="46.38258" lon="-0.44211">
        <ele>61</ele>
        <time>2009-07-21T17:06:22Z</time>
      </trkpt>
      <trkpt lat="46.3814" lon="-0.44222">
        <ele>63</ele>
        <time>2009-07-21T17:06:49Z</time>
      </trkpt>
      <trkpt lat="46.38024" lon="-0.44214">
        <ele>64</ele>
        <time>2009-07-21T17:07:16Z</time>
      </trkpt>
      <trkpt lat="46.37975" lon="-0.44231">
        <ele>65</ele>
        <time>2009-07-21T17:07:28Z</time>
      </trkpt>
      <trkpt lat="46.37827" lon="-0.44351">
        <ele>65</ele>
        <time>2009-07-21T17:08:04Z</time>
      </trkpt>
      <trkpt lat="46.37726" lon="-0.44473">
        <ele>63</ele>
        <time>2009-07-21T17:08:30Z</time>
      </trkpt>
      <trkpt lat="46.37711" lon="-0.4449">
        <ele>63</ele>
        <time>2009-07-21T17:08:34Z</time>
      </trkpt>
      <trkpt lat="46.37617" lon="-0.44568">
        <ele>60</ele>
        <time>2009-07-21T17:08:54Z</time>
      </trkpt>
      <trkpt lat="46.37621" lon="-0.44595">
        <ele>58</ele>
        <time>2009-07-21T17:08:59Z</time>
      </trkpt>
      <trkpt lat="46.3767" lon="-0.44722">
        <ele>55</ele>
        <time>2009-07-21T17:09:19Z</time>
      </trkpt>
      <trkpt lat="46.37675" lon="-0.44744">
        <ele>53</ele>
        <time>2009-07-21T17:09:22Z</time>
      </trkpt>
      <trkpt lat="46.37707" lon="-0.44804">
        <ele>52</ele>
        <time>2009-07-21T17:09:34Z</time>
      </trkpt>
      <trkpt lat="46.37743" lon="-0.44851">
        <ele>49</ele>
        <time>2009-07-21T17:09:45Z</time>
      </trkpt>
      <trkpt lat="46.37756" lon="-0.44937">
        <ele>49</ele>
        <time>2009-07-21T17:10:04Z</time>
      </trkpt>
      <trkpt lat="46.37782" lon="-0.4513">
        <ele>44</ele>
        <time>2009-07-21T17:10:41Z</time>
      </trkpt>
      <trkpt lat="46.37799" lon="-0.45248">
        <ele>43</ele>
        <time>2009-07-21T17:10:58Z</time>
      </trkpt>
      <trkpt lat="46.37803" lon="-0.45353">
        <ele>40</ele>
        <time>2009-07-21T17:11:15Z</time>
      </trkpt>
      <trkpt lat="46.37803" lon="-0.45362">
        <ele>39</ele>
        <time>2009-07-21T17:11:29Z</time>
      </trkpt>
      <trkpt lat="46.37805" lon="-0.454">
        <ele>40</ele>
        <time>2009-07-21T17:11:41Z</time>
      </trkpt>
      <trkpt lat="46.37799" lon="-0.4558">
        <ele>39</ele>
        <time>2009-07-21T17:12:06Z</time>
      </trkpt>
      <trkpt lat="46.37801" lon="-0.45649">
        <ele>37</ele>
        <time>2009-07-21T17:12:20Z</time>
      </trkpt>
      <trkpt lat="46.37803" lon="-0.45694">
        <ele>35</ele>
        <time>2009-07-21T17:12:37Z</time>
      </trkpt>
      <trkpt lat="46.37795" lon="-0.45675">
        <ele>34</ele>
        <time>2009-07-21T17:13:36Z</time>
      </trkpt>
      <trkpt lat="46.37799" lon="-0.4569">
        <ele>35</ele>
        <time>2009-07-21T17:14:48Z</time>
      </trkpt>
      <trkpt lat="46.37808" lon="-0.45703">
        <ele>35</ele>
        <time>2009-07-21T17:18:40Z</time>
      </trkpt>
      <trkpt lat="46.3781" lon="-0.45707">
        <ele>35</ele>
        <time>2009-07-21T17:19:24Z</time>
      </trkpt>
      <trkpt lat="46.3781" lon="-0.45716">
        <ele>35</ele>
        <time>2009-07-21T17:20:08Z</time>
      </trkpt>
      <trkpt lat="46.37808" lon="-0.45675">
        <ele>36</ele>
        <time>2009-07-21T17:20:50Z</time>
      </trkpt>
      <trkpt lat="46.37801" lon="-0.45692">
        <ele>35</ele>
        <time>2009-07-21T17:21:11Z</time>
      </trkpt>
      <trkpt lat="46.37805" lon="-0.45769">
        <ele>34</ele>
        <time>2009-07-21T17:22:03Z</time>
      </trkpt>
      <trkpt lat="46.37805" lon="-0.45711">
        <ele>35</ele>
        <time>2009-07-21T17:22:16Z</time>
      </trkpt>
      <trkpt lat="46.37801" lon="-0.45572">
        <ele>39</ele>
        <time>2009-07-21T17:22:47Z</time>
      </trkpt>
      <trkpt lat="46.37799" lon="-0.4552">
        <ele>39</ele>
        <time>2009-07-21T17:23:04Z</time>
      </trkpt>
      <trkpt lat="46.37799" lon="-0.4552">
        <ele>39</ele>
        <time>2009-07-21T17:23:06Z</time>
      </trkpt>
      <trkpt lat="46.37797" lon="-0.45525">
        <ele>38</ele>
        <time>2009-07-21T17:23:09Z</time>
      </trkpt>
      <trkpt lat="46.37799" lon="-0.45555">
        <ele>39</ele>
        <time>2009-07-21T17:23:33Z</time>
      </trkpt>
      <trkpt lat="46.37801" lon="-0.45563">
        <ele>39</ele>
        <time>2009-07-21T17:24:10Z</time>
      </trkpt>
      <trkpt lat="46.37805" lon="-0.45557">
        <ele>39</ele>
        <time>2009-07-21T17:26:31Z</time>
      </trkpt>
      <trkpt lat="46.37805" lon="-0.45563">
        <ele>39</ele>
        <time>2009-07-21T17:26:58Z</time>
      </trkpt>
      <trkpt lat="46.37805" lon="-0.45576">
        <ele>40</ele>
        <time>2009-07-21T17:27:02Z</time>
      </trkpt>
      <trkpt lat="46.37808" lon="-0.45643">
        <ele>37</ele>
        <time>2009-07-21T17:27:19Z</time>
      </trkpt>
      <trkpt lat="46.37814" lon="-0.45765">
        <ele>35</ele>
        <time>2009-07-21T17:27:48Z</time>
      </trkpt>
      <trkpt lat="46.37808" lon="-0.45774">
        <ele>34</ele>
        <time>2009-07-21T17:28:32Z</time>
      </trkpt>
      <trkpt lat="46.3782" lon="-0.45782">
        <ele>35</ele>
        <time>2009-07-21T17:30:29Z</time>
      </trkpt>
      <trkpt lat="46.37803" lon="-0.45703">
        <ele>35</ele>
        <time>2009-07-21T17:33:34Z</time>
      </trkpt>
      <trkpt lat="46.37788" lon="-0.45754">
        <ele>32</ele>
        <time>2009-07-21T17:33:40Z</time>
      </trkpt>
      <trkpt lat="46.37778" lon="-0.45801">
        <ele>32</ele>
        <time>2009-07-21T17:33:46Z</time>
      </trkpt>
      <trkpt lat="46.37775" lon="-0.45806">
        <ele>32</ele>
        <time>2009-07-21T17:33:47Z</time>
      </trkpt>
      <trkpt lat="46.37763" lon="-0.4593">
        <ele>33</ele>
        <time>2009-07-21T17:34:12Z</time>
      </trkpt>
      <trkpt lat="46.37745" lon="-0.4611">
        <ele>28</ele>
        <time>2009-07-21T17:34:41Z</time>
      </trkpt>
      <trkpt lat="46.37769" lon="-0.46224">
        <ele>33</ele>
        <time>2009-07-21T17:34:58Z</time>
      </trkpt>
      <trkpt lat="46.37797" lon="-0.46379">
        <ele>33</ele>
        <time>2009-07-21T17:35:23Z</time>
      </trkpt>
      <trkpt lat="46.37816" lon="-0.46434">
        <ele>34</ele>
        <time>2009-07-21T17:35:34Z</time>
      </trkpt>
      <trkpt lat="46.3782" lon="-0.46473">
        <ele>34</ele>
        <time>2009-07-21T17:35:40Z</time>
      </trkpt>
      <trkpt lat="46.37816" lon="-0.46512">
        <ele>34</ele>
        <time>2009-07-21T17:35:46Z</time>
      </trkpt>
      <trkpt lat="46.37805" lon="-0.46552">
        <ele>33</ele>
        <time>2009-07-21T17:35:52Z</time>
      </trkpt>
      <trkpt lat="46.37797" lon="-0.46572">
        <ele>32</ele>
        <time>2009-07-21T17:35:55Z</time>
      </trkpt>
      <trkpt lat="46.37793" lon="-0.46608">
        <ele>31</ele>
        <time>2009-07-21T17:36:00Z</time>
      </trkpt>
      <trkpt lat="46.37816" lon="-0.46758">
        <ele>35</ele>
        <time>2009-07-21T17:36:21Z</time>
      </trkpt>
      <trkpt lat="46.37831" lon="-0.46765">
        <ele>35</ele>
        <time>2009-07-21T17:36:25Z</time>
      </trkpt>
      <trkpt lat="46.37857" lon="-0.46782">
        <ele>37</ele>
        <time>2009-07-21T17:36:31Z</time>
      </trkpt>
      <trkpt lat="46.37902" lon="-0.46861">
        <ele>38</ele>
        <time>2009-07-21T17:36:46Z</time>
      </trkpt>
      <trkpt lat="46.37915" lon="-0.46896">
        <ele>38</ele>
        <time>2009-07-21T17:36:52Z</time>
      </trkpt>
      <trkpt lat="46.37923" lon="-0.46928">
        <ele>39</ele>
        <time>2009-07-21T17:36:57Z</time>
      </trkpt>
      <trkpt lat="46.37902" lon="-0.47065">
        <ele>37</ele>
        <time>2009-07-21T17:37:16Z</time>
      </trkpt>
      <trkpt lat="46.37874" lon="-0.47261">
        <ele>30</ele>
        <time>2009-07-21T17:37:41Z</time>
      </trkpt>
      <trkpt lat="46.37885" lon="-0.47467">
        <ele>28</ele>
        <time>2009-07-21T17:38:05Z</time>
      </trkpt>
      <trkpt lat="46.3787" lon="-0.47664">
        <ele>27</ele>
        <time>2009-07-21T17:38:30Z</time>
      </trkpt>
      <trkpt lat="46.3787" lon="-0.47733">
        <ele>26</ele>
        <time>2009-07-21T17:38:39Z</time>
      </trkpt>
      <trkpt lat="46.37857" lon="-0.4776">
        <ele>25</ele>
        <time>2009-07-21T17:38:43Z</time>
      </trkpt>
      <trkpt lat="46.37803" lon="-0.47853">
        <ele>21</ele>
        <time>2009-07-21T17:38:58Z</time>
      </trkpt>
      <trkpt lat="46.37786" lon="-0.47898">
        <ele>21</ele>
        <time>2009-07-21T17:39:12Z</time>
      </trkpt>
      <trkpt lat="46.37782" lon="-0.47909">
        <ele>20</ele>
        <time>2009-07-21T17:39:16Z</time>
      </trkpt>
      <trkpt lat="46.37793" lon="-0.48057">
        <ele>20</ele>
        <time>2009-07-21T17:39:52Z</time>
      </trkpt>
      <trkpt lat="46.37799" lon="-0.48157">
        <ele>19</ele>
        <time>2009-07-21T17:40:10Z</time>
      </trkpt>
      <trkpt lat="46.37698" lon="-0.48451">
        <ele>33</ele>
        <time>2009-07-21T17:41:03Z</time>
      </trkpt>
      <trkpt lat="46.37621" lon="-0.48357">
        <ele>37</ele>
        <time>2009-07-21T17:41:24Z</time>
      </trkpt>
      <trkpt lat="46.37587" lon="-0.48318">
        <ele>35</ele>
        <time>2009-07-21T17:41:33Z</time>
      </trkpt>
      <trkpt lat="46.37511" lon="-0.47874">
        <ele>30</ele>
        <time>2009-07-21T17:42:11Z</time>
      </trkpt>
      <trkpt lat="46.37621" lon="-0.47666">
        <ele>18</ele>
        <time>2009-07-21T17:42:37Z</time>
      </trkpt>
      <trkpt lat="46.37527" lon="-0.47657">
        <ele>27</ele>
        <time>2009-07-21T17:42:41Z</time>
      </trkpt>
      <trkpt lat="46.37511" lon="-0.47636">
        <ele>27</ele>
        <time>2009-07-21T17:42:44Z</time>
      </trkpt>
      <trkpt lat="46.37516" lon="-0.47606">
        <ele>27</ele>
        <time>2009-07-21T17:42:48Z</time>
      </trkpt>
      <trkpt lat="46.37492" lon="-0.4746">
        <ele>35</ele>
        <time>2009-07-21T17:43:16Z</time>
      </trkpt>
      <trkpt lat="46.37443" lon="-0.47269">
        <ele>35</ele>
        <time>2009-07-21T17:43:57Z</time>
      </trkpt>
      <trkpt lat="46.374" lon="-0.47097">
        <ele>44</ele>
        <time>2009-07-21T17:44:34Z</time>
      </trkpt>
      <trkpt lat="46.37398" lon="-0.47063">
        <ele>45</ele>
        <time>2009-07-21T17:44:41Z</time>
      </trkpt>
      <trkpt lat="46.37376" lon="-0.47061">
        <ele>45</ele>
        <time>2009-07-21T17:44:51Z</time>
      </trkpt>
      <trkpt lat="46.37308" lon="-0.47072">
        <ele>47</ele>
        <time>2009-07-21T17:45:22Z</time>
      </trkpt>
      <trkpt lat="46.37308" lon="-0.47074">
        <ele>47</ele>
        <time>2009-07-21T17:45:27Z</time>
      </trkpt>
      <trkpt lat="46.37284" lon="-0.47044">
        <ele>47</ele>
        <time>2009-07-21T17:45:44Z</time>
      </trkpt>
      <trkpt lat="46.37275" lon="-0.47035">
        <ele>47</ele>
        <time>2009-07-21T17:45:46Z</time>
      </trkpt>
      <trkpt lat="46.37254" lon="-0.47016">
        <ele>46</ele>
        <time>2009-07-21T17:45:51Z</time>
      </trkpt>
      <trkpt lat="46.37233" lon="-0.47009">
        <ele>46</ele>
        <time>2009-07-21T17:45:55Z</time>
      </trkpt>
      <trkpt lat="46.37192" lon="-0.47001">
        <ele>45</ele>
        <time>2009-07-21T17:46:02Z</time>
      </trkpt>
      <trkpt lat="46.37102" lon="-0.46994">
        <ele>44</ele>
        <time>2009-07-21T17:46:16Z</time>
      </trkpt>
      <trkpt lat="46.36964" lon="-0.46962">
        <ele>39</ele>
        <time>2009-07-21T17:46:39Z</time>
      </trkpt>
      <trkpt lat="46.36891" lon="-0.47042">
        <ele>40</ele>
        <time>2009-07-21T17:46:55Z</time>
      </trkpt>
      <trkpt lat="46.36788" lon="-0.47136">
        <ele>41</ele>
        <time>2009-07-21T17:47:20Z</time>
      </trkpt>
      <trkpt lat="46.36692" lon="-0.47194">
        <ele>42</ele>
        <time>2009-07-21T17:47:42Z</time>
      </trkpt>
      <trkpt lat="46.36548" lon="-0.47271">
        <ele>46</ele>
        <time>2009-07-21T17:48:15Z</time>
      </trkpt>
      <trkpt lat="46.36505" lon="-0.47301">
        <ele>48</ele>
        <time>2009-07-21T17:48:28Z</time>
      </trkpt>
      <trkpt lat="46.36409" lon="-0.47359">
        <ele>46</ele>
        <time>2009-07-21T17:49:00Z</time>
      </trkpt>
      <trkpt lat="46.36284" lon="-0.47428">
        <ele>50</ele>
        <time>2009-07-21T17:49:35Z</time>
      </trkpt>
      <trkpt lat="46.36179" lon="-0.47464">
        <ele>47</ele>
        <time>2009-07-21T17:50:03Z</time>
      </trkpt>
      <trkpt lat="46.3622" lon="-0.47316">
        <ele>23</ele>
        <time>2009-07-21T17:50:57Z</time>
      </trkpt>
      <trkpt lat="46.35992" lon="-0.47203">
        <ele>36</ele>
        <time>2009-07-21T17:52:13Z</time>
      </trkpt>
      <trkpt lat="46.35866" lon="-0.46947">
        <ele>30</ele>
        <time>2009-07-21T17:53:05Z</time>
      </trkpt>
      <trkpt lat="46.35853" lon="-0.46915">
        <ele>28</ele>
        <time>2009-07-21T17:53:11Z</time>
      </trkpt>
      <trkpt lat="46.35816" lon="-0.46799">
        <ele>31</ele>
        <time>2009-07-21T17:53:29Z</time>
      </trkpt>
      <trkpt lat="46.35769" lon="-0.46628">
        <ele>26</ele>
        <time>2009-07-21T17:53:57Z</time>
      </trkpt>
      <trkpt lat="46.35681" lon="-0.46295">
        <ele>20</ele>
        <time>2009-07-21T17:54:49Z</time>
      </trkpt>
      <trkpt lat="46.35608" lon="-0.46057">
        <ele>18</ele>
        <time>2009-07-21T17:55:26Z</time>
      </trkpt>
      <trkpt lat="46.35546" lon="-0.45872">
        <ele>19</ele>
        <time>2009-07-21T17:56:07Z</time>
      </trkpt>
      <trkpt lat="46.35544" lon="-0.45866">
        <ele>19</ele>
        <time>2009-07-21T17:56:08Z</time>
      </trkpt>
      <trkpt lat="46.35492" lon="-0.45819">
        <ele>19</ele>
        <time>2009-07-21T17:56:16Z</time>
      </trkpt>
      <trkpt lat="46.35477" lon="-0.45778">
        <ele>19</ele>
        <time>2009-07-21T17:56:24Z</time>
      </trkpt>
      <trkpt lat="46.35477" lon="-0.45767">
        <ele>18</ele>
        <time>2009-07-21T17:56:27Z</time>
      </trkpt>
      <trkpt lat="46.35542" lon="-0.45673">
        <ele>19</ele>
        <time>2009-07-21T17:56:48Z</time>
      </trkpt>
      <trkpt lat="46.35587" lon="-0.45615">
        <ele>29</ele>
        <time>2009-07-21T17:57:03Z</time>
      </trkpt>
      <trkpt lat="46.35643" lon="-0.45692">
        <ele>25</ele>
        <time>2009-07-21T17:57:19Z</time>
      </trkpt>
      <trkpt lat="46.35681" lon="-0.45763">
        <ele>26</ele>
        <time>2009-07-21T17:57:33Z</time>
      </trkpt>
      <trkpt lat="46.35709" lon="-0.45765">
        <ele>27</ele>
        <time>2009-07-21T17:57:43Z</time>
      </trkpt>
      <trkpt lat="46.35715" lon="-0.45778">
        <ele>27</ele>
        <time>2009-07-21T17:57:47Z</time>
      </trkpt>
      <trkpt lat="46.35726" lon="-0.45827">
        <ele>27</ele>
        <time>2009-07-21T17:57:58Z</time>
      </trkpt>
      <trkpt lat="46.35743" lon="-0.4587">
        <ele>25</ele>
        <time>2009-07-21T17:58:04Z</time>
      </trkpt>
      <trkpt lat="46.3575" lon="-0.45904">
        <ele>24</ele>
        <time>2009-07-21T17:58:08Z</time>
      </trkpt>
      <trkpt lat="46.35769" lon="-0.4596">
        <ele>24</ele>
        <time>2009-07-21T17:58:15Z</time>
      </trkpt>
      <trkpt lat="46.35806" lon="-0.45984">
        <ele>23</ele>
        <time>2009-07-21T17:58:20Z</time>
      </trkpt>
      <trkpt lat="46.3587" lon="-0.45984">
        <ele>25</ele>
        <time>2009-07-21T17:58:28Z</time>
      </trkpt>
      <trkpt lat="46.35881" lon="-0.45982">
        <ele>25</ele>
        <time>2009-07-21T17:58:30Z</time>
      </trkpt>
      <trkpt lat="46.35896" lon="-0.45971">
        <ele>25</ele>
        <time>2009-07-21T17:58:37Z</time>
      </trkpt>
      <trkpt lat="46.35896" lon="-0.45969">
        <ele>25</ele>
        <time>2009-07-21T17:58:38Z</time>
      </trkpt>
      <trkpt lat="46.35919" lon="-0.45924">
        <ele>25</ele>
        <time>2009-07-21T17:59:00Z</time>
      </trkpt>
      <trkpt lat="46.35926" lon="-0.45937">
        <ele>27</ele>
        <time>2009-07-21T17:59:05Z</time>
      </trkpt>
      <trkpt lat="46.35934" lon="-0.45952">
        <ele>28</ele>
        <time>2009-07-21T17:59:09Z</time>
      </trkpt>
      <trkpt lat="46.35943" lon="-0.45954">
        <ele>29</ele>
        <time>2009-07-21T17:59:13Z</time>
      </trkpt>
      <trkpt lat="46.35986" lon="-0.45971">
        <ele>31</ele>
        <time>2009-07-21T17:59:31Z</time>
      </trkpt>
      <trkpt lat="46.3599" lon="-0.45977">
        <ele>32</ele>
        <time>2009-07-21T17:59:34Z</time>
      </trkpt>
      <trkpt lat="46.35994" lon="-0.4602">
        <ele>33</ele>
        <time>2009-07-21T17:59:42Z</time>
      </trkpt>
      <trkpt lat="46.36005" lon="-0.46027">
        <ele>36</ele>
        <time>2009-07-21T17:59:46Z</time>
      </trkpt>
      <trkpt lat="46.36052" lon="-0.46007">
        <ele>36</ele>
        <time>2009-07-21T18:00:00Z</time>
      </trkpt>
      <trkpt lat="46.36063" lon="-0.46022">
        <ele>37</ele>
        <time>2009-07-21T18:00:05Z</time>
      </trkpt>
      <trkpt lat="46.36085" lon="-0.46087">
        <ele>37</ele>
        <time>2009-07-21T18:00:16Z</time>
      </trkpt>
      <trkpt lat="46.361" lon="-0.46093">
        <ele>37</ele>
        <time>2009-07-21T18:00:20Z</time>
      </trkpt>
      <trkpt lat="46.36192" lon="-0.45988">
        <ele>41</ele>
        <time>2009-07-21T18:00:49Z</time>
      </trkpt>
      <trkpt lat="46.36314" lon="-0.45855">
        <ele>42</ele>
        <time>2009-07-21T18:01:21Z</time>
      </trkpt>
      <trkpt lat="46.36406" lon="-0.45726">
        <ele>36</ele>
        <time>2009-07-21T18:01:43Z</time>
      </trkpt>
      <trkpt lat="46.36441" lon="-0.45664">
        <ele>34</ele>
        <time>2009-07-21T18:01:52Z</time>
      </trkpt>
      <trkpt lat="46.36518" lon="-0.45456">
        <ele>32</ele>
        <time>2009-07-21T18:02:17Z</time>
      </trkpt>
      <trkpt lat="46.36587" lon="-0.45342">
        <ele>39</ele>
        <time>2009-07-21T18:02:36Z</time>
      </trkpt>
      <trkpt lat="46.36621" lon="-0.4525">
        <ele>47</ele>
        <time>2009-07-21T18:02:52Z</time>
      </trkpt>
      <trkpt lat="46.36606" lon="-0.45175">
        <ele>48</ele>
        <time>2009-07-21T18:03:06Z</time>
      </trkpt>
      <trkpt lat="46.36595" lon="-0.45091">
        <ele>49</ele>
        <time>2009-07-21T18:03:21Z</time>
      </trkpt>
      <trkpt lat="46.36638" lon="-0.45057">
        <ele>53</ele>
        <time>2009-07-21T18:03:36Z</time>
      </trkpt>
      <trkpt lat="46.36675" lon="-0.45018">
        <ele>56</ele>
        <time>2009-07-21T18:03:51Z</time>
      </trkpt>
      <trkpt lat="46.36655" lon="-0.44937">
        <ele>57</ele>
        <time>2009-07-21T18:04:09Z</time>
      </trkpt>
      <trkpt lat="46.36627" lon="-0.44836">
        <ele>57</ele>
        <time>2009-07-21T18:04:29Z</time>
      </trkpt>
      <trkpt lat="46.36593" lon="-0.44705">
        <ele>57</ele>
        <time>2009-07-21T18:04:46Z</time>
      </trkpt>
      <trkpt lat="46.3657" lon="-0.44621">
        <ele>55</ele>
        <time>2009-07-21T18:04:58Z</time>
      </trkpt>
      <trkpt lat="46.36578" lon="-0.44544">
        <ele>56</ele>
        <time>2009-07-21T18:05:11Z</time>
      </trkpt>
      <trkpt lat="46.3658" lon="-0.44523">
        <ele>56</ele>
        <time>2009-07-21T18:05:40Z</time>
      </trkpt>
      <trkpt lat="46.36589" lon="-0.44454">
        <ele>59</ele>
        <time>2009-07-21T18:05:57Z</time>
      </trkpt>
      <trkpt lat="46.36597" lon="-0.44394">
        <ele>61</ele>
        <time>2009-07-21T18:06:10Z</time>
      </trkpt>
      <trkpt lat="46.36565" lon="-0.44291">
        <ele>62</ele>
        <time>2009-07-21T18:06:29Z</time>
      </trkpt>
      <trkpt lat="46.36518" lon="-0.44119">
        <ele>62</ele>
        <time>2009-07-21T18:06:55Z</time>
      </trkpt>
      <trkpt lat="46.36514" lon="-0.44104">
        <ele>62</ele>
        <time>2009-07-21T18:06:57Z</time>
      </trkpt>
      <trkpt lat="46.36565" lon="-0.43997">
        <ele>66</ele>
        <time>2009-07-21T18:07:17Z</time>
      </trkpt>
      <trkpt lat="46.36627" lon="-0.439">
        <ele>68</ele>
        <time>2009-07-21T18:07:39Z</time>
      </trkpt>
      <trkpt lat="46.36696" lon="-0.43834">
        <ele>70</ele>
        <time>2009-07-21T18:08:02Z</time>
      </trkpt>
      <trkpt lat="46.36829" lon="-0.43744">
        <ele>74</ele>
        <time>2009-07-21T18:08:44Z</time>
      </trkpt>
      <trkpt lat="46.36966" lon="-0.43653">
        <ele>77</ele>
        <time>2009-07-21T18:09:22Z</time>
      </trkpt>
      <trkpt lat="46.37108" lon="-0.43559">
        <ele>76</ele>
        <time>2009-07-21T18:10:01Z</time>
      </trkpt>
      <trkpt lat="46.37115" lon="-0.43555">
        <ele>76</ele>
        <time>2009-07-21T18:10:03Z</time>
      </trkpt>
      <trkpt lat="46.37072" lon="-0.43471">
        <ele>80</ele>
        <time>2009-07-21T18:10:22Z</time>
      </trkpt>
      <trkpt lat="46.36999" lon="-0.43357">
        <ele>80</ele>
        <time>2009-07-21T18:10:46Z</time>
      </trkpt>
      <trkpt lat="46.36924" lon="-0.4328">
        <ele>80</ele>
        <time>2009-07-21T18:11:03Z</time>
      </trkpt>
      <trkpt lat="46.36951" lon="-0.43259">
        <ele>81</ele>
        <time>2009-07-21T18:11:11Z</time>
      </trkpt>
      <trkpt lat="46.37063" lon="-0.4322">
        <ele>83</ele>
        <time>2009-07-21T18:11:34Z</time>
      </trkpt>
      <trkpt lat="46.37198" lon="-0.43177">
        <ele>81</ele>
        <time>2009-07-21T18:11:58Z</time>
      </trkpt>
      <trkpt lat="46.37271" lon="-0.43154">
        <ele>78</ele>
        <time>2009-07-21T18:12:10Z</time>
      </trkpt>
      <trkpt lat="46.37308" lon="-0.4313">
        <ele>76</ele>
        <time>2009-07-21T18:12:15Z</time>
      </trkpt>
      <trkpt lat="46.37454" lon="-0.42999">
        <ele>67</ele>
        <time>2009-07-21T18:12:35Z</time>
      </trkpt>
      <trkpt lat="46.37484" lon="-0.42978">
        <ele>66</ele>
        <time>2009-07-21T18:12:39Z</time>
      </trkpt>
      <trkpt lat="46.37539" lon="-0.42969">
        <ele>63</ele>
        <time>2009-07-21T18:12:46Z</time>
      </trkpt>
      <trkpt lat="46.37569" lon="-0.43003">
        <ele>63</ele>
        <time>2009-07-21T18:12:52Z</time>
      </trkpt>
      <trkpt lat="46.37578" lon="-0.43141">
        <ele>63</ele>
        <time>2009-07-21T18:13:06Z</time>
      </trkpt>
      <trkpt lat="46.37582" lon="-0.43235">
        <ele>64</ele>
        <time>2009-07-21T18:13:16Z</time>
      </trkpt>
      <trkpt lat="46.37632" lon="-0.43385">
        <ele>62</ele>
        <time>2009-07-21T18:13:38Z</time>
      </trkpt>
      <trkpt lat="46.37657" lon="-0.43478">
        <ele>61</ele>
        <time>2009-07-21T18:13:52Z</time>
      </trkpt>
      <trkpt lat="46.37694" lon="-0.43482">
        <ele>59</ele>
        <time>2009-07-21T18:13:59Z</time>
      </trkpt>
      <trkpt lat="46.37842" lon="-0.4339">
        <ele>57</ele>
        <time>2009-07-21T18:14:24Z</time>
      </trkpt>
      <trkpt lat="46.37984" lon="-0.43304">
        <ele>55</ele>
        <time>2009-07-21T18:14:48Z</time>
      </trkpt>
      <trkpt lat="46.38129" lon="-0.43216">
        <ele>53</ele>
        <time>2009-07-21T18:15:14Z</time>
      </trkpt>
      <trkpt lat="46.38308" lon="-0.43108">
        <ele>50</ele>
        <time>2009-07-21T18:15:43Z</time>
      </trkpt>
      <trkpt lat="46.3852" lon="-0.42978">
        <ele>48</ele>
        <time>2009-07-21T18:16:18Z</time>
      </trkpt>
      <trkpt lat="46.38578" lon="-0.42943">
        <ele>48</ele>
        <time>2009-07-21T18:16:28Z</time>
      </trkpt>
      <trkpt lat="46.3873" lon="-0.429">
        <ele>47</ele>
        <time>2009-07-21T18:16:54Z</time>
      </trkpt>
      <trkpt lat="46.38908" lon="-0.42866">
        <ele>46</ele>
        <time>2009-07-21T18:17:25Z</time>
      </trkpt>
      <trkpt lat="46.38975" lon="-0.42836">
        <ele>46</ele>
        <time>2009-07-21T18:17:39Z</time>
      </trkpt>
      <trkpt lat="46.38988" lon="-0.42802">
        <ele>45</ele>
        <time>2009-07-21T18:17:44Z</time>
      </trkpt>
      <trkpt lat="46.38994" lon="-0.42651">
        <ele>39</ele>
        <time>2009-07-21T18:17:58Z</time>
      </trkpt>
      <trkpt lat="46.38975" lon="-0.42405">
        <ele>31</ele>
        <time>2009-07-21T18:18:19Z</time>
      </trkpt>
      <trkpt lat="46.38973" lon="-0.42375">
        <ele>31</ele>
        <time>2009-07-21T18:18:22Z</time>
      </trkpt>
      <trkpt lat="46.3899" lon="-0.42362">
        <ele>31</ele>
        <time>2009-07-21T18:18:26Z</time>
      </trkpt>
      <trkpt lat="46.39046" lon="-0.42338">
        <ele>32</ele>
        <time>2009-07-21T18:18:37Z</time>
      </trkpt>
      <trkpt lat="46.39061" lon="-0.42321">
        <ele>32</ele>
        <time>2009-07-21T18:18:41Z</time>
      </trkpt>
      <trkpt lat="46.39074" lon="-0.423">
        <ele>32</ele>
        <time>2009-07-21T18:18:45Z</time>
      </trkpt>
      <trkpt lat="46.39076" lon="-0.42239">
        <ele>31</ele>
        <time>2009-07-21T18:18:58Z</time>
      </trkpt>
      <trkpt lat="46.39074" lon="-0.42237">
        <ele>31</ele>
        <time>2009-07-21T18:19:11Z</time>
      </trkpt>
      <trkpt lat="46.39074" lon="-0.42237">
        <ele>31</ele>
        <time>2009-07-21T18:19:14Z</time>
      </trkpt>
    </trkseg>
  </trk>
</gpx>